Weather at Manchester Airport

Public forecast

Using degrees Celsius for public forecast. Weather courtesy of forecast.io.

Current aviation weather report (METAR) for Manchester Airport

Retrieved 2020/10/29 08:20 UTC (0 seconds ago):

EGCC 290820Z AUTO 16005KT 090V220 9999 -RA NCD 08/07 Q1007 NOSIG

Aviation forecast (TAF) for Manchester Airport

Retrieved 2020/10/29 06:00 UTC (2 hours ago):

TAF EGCC 290500Z 2906/3012 22009KT 9999 SCT030 BECMG 2907/2910 16010KT TEMPO 2907/2915 7000 RA PROB30 TEMPO 2908/2915 3000 +RA BKN010 PROB40 TEMPO 2909/2912 18018G28KT BECMG 2912/2915 22015KT TEMPO 2912/3003 23018G28KT PROB40 TEMPO 2919/3011 7000 -RADZ BKN012